Terminal Aerodrome Forecast
Issued by NWS

Home | Current Version | Previous Version | Text Only | Print | Product List | Glossary On
Versions: 1 2 3 4 5 6 7 8 9 10 11 12 13 14
000
FTUS45 KRIW 110500
TAFRKS
TAF
KRKS 110522Z 1106/1206 22008KT P6SM VCSH SCT060 BKN100
     FM111900 28009KT P6SM VCTS SCT050CB BKN090
     FM120300 06007KT P6SM VCSH SCT060 BKN100=

USA.gov is the U.S. government's official web portal to all federal, state and local government web resources and services.